createdAt,value
2023-05-09T00:02:08.477Z,8.90
2023-05-09T00:04:35.504Z,9.70
2023-05-09T00:07:02.597Z,8.10
2023-05-09T00:09:29.262Z,8.60
2023-05-09T00:11:56.052Z,8.30
2023-05-09T00:14:24.874Z,8.60
2023-05-09T00:16:51.778Z,7.50
2023-05-09T00:19:18.632Z,7.30
2023-05-09T00:21:45.862Z,7.60
2023-05-09T00:24:12.573Z,6.90
2023-05-09T00:26:39.379Z,6.90
2023-05-09T00:29:06.134Z,6.70
2023-05-09T00:31:33.127Z,6.60
2023-05-09T00:33:59.888Z,6.60
2023-05-09T00:36:26.589Z,7.50
2023-05-09T00:38:53.311Z,6.90
2023-05-09T00:41:20.055Z,6.30
2023-05-09T00:43:46.754Z,6.30
2023-05-09T00:46:13.482Z,5.30
2023-05-09T00:48:40.478Z,5.50
2023-05-09T00:51:07.255Z,6.00
2023-05-09T00:53:33.954Z,5.90
2023-05-09T00:56:00.774Z,6.30
2023-05-09T00:58:27.605Z,6.10
2023-05-09T01:00:54.318Z,6.40
2023-05-09T01:03:21.168Z,6.40
2023-05-09T01:05:53.220Z,5.90
2023-05-09T01:08:35.208Z,4.70
2023-05-09T01:11:07.230Z,4.30
2023-05-09T01:13:41.443Z,4.40
2023-05-09T01:16:18.329Z,4.60
2023-05-09T01:19:19.064Z,4.90
2023-05-09T01:21:45.833Z,4.90
2023-05-09T01:24:39.414Z,4.00
2023-05-09T01:27:32.777Z,5.00
2023-05-09T01:30:00.381Z,4.40
2023-05-09T01:32:28.387Z,4.30
2023-05-09T01:34:56.038Z,4.60
2023-05-09T01:37:26.092Z,4.10
2023-05-09T01:39:53.343Z,4.40
2023-05-09T01:42:20.486Z,3.60
2023-05-09T01:44:47.845Z,3.70
2023-05-09T01:47:16.531Z,4.30
2023-05-09T01:49:43.326Z,4.30
2023-05-09T01:52:13.564Z,4.70
2023-05-09T01:54:40.422Z,4.60
2023-05-09T01:57:07.800Z,4.30
2023-05-09T01:59:35.302Z,4.80
2023-05-09T02:02:03.361Z,3.90
2023-05-09T02:04:30.049Z,4.20
2023-05-09T02:06:57.088Z,3.60
2023-05-09T02:09:24.562Z,4.20
2023-05-09T02:11:51.318Z,3.80
2023-05-09T02:14:18.123Z,3.60
2023-05-09T02:16:44.917Z,3.20
2023-05-09T02:19:11.657Z,5.00
2023-05-09T02:21:38.415Z,3.10
2023-05-09T02:24:05.748Z,3.20
2023-05-09T02:26:32.448Z,4.20
2023-05-09T02:28:59.219Z,3.70
2023-05-09T02:31:26.076Z,3.80
2023-05-09T02:33:52.937Z,3.30
2023-05-09T02:36:19.696Z,3.10
2023-05-09T02:38:46.951Z,3.20
2023-05-09T02:41:17.254Z,3.20
2023-05-09T02:43:43.959Z,3.20
2023-05-09T02:46:10.962Z,3.40
2023-05-09T02:48:37.762Z,3.50
2023-05-09T02:51:05.298Z,3.70
2023-05-09T02:53:32.014Z,3.30
2023-05-09T02:55:58.800Z,2.90
2023-05-09T02:58:25.590Z,3.40
2023-05-09T03:00:52.344Z,2.90
2023-05-09T03:03:19.313Z,3.30
2023-05-09T03:05:46.445Z,2.90
2023-05-09T03:08:13.250Z,3.10
2023-05-09T03:10:40.120Z,2.80
2023-05-09T03:13:07.289Z,2.70
2023-05-09T03:15:34.045Z,2.80
2023-05-09T03:18:00.844Z,2.90
2023-05-09T03:20:27.912Z,3.00
2023-05-09T03:22:54.876Z,2.70
2023-05-09T03:25:22.387Z,4.20
2023-05-09T03:27:49.335Z,3.70
2023-05-09T03:30:16.143Z,3.70
2023-05-09T03:32:43.535Z,2.80
2023-05-09T03:35:10.414Z,3.30
2023-05-09T03:37:37.739Z,2.80
2023-05-09T03:40:06.621Z,2.60
2023-05-09T03:42:36.848Z,3.10
2023-05-09T03:45:04.454Z,3.60
2023-05-09T03:47:31.397Z,3.60
2023-05-09T03:49:58.783Z,3.40
2023-05-09T03:52:25.716Z,3.60
2023-05-09T03:54:52.658Z,3.20
2023-05-09T03:57:20.013Z,3.00
2023-05-09T03:59:47.474Z,2.70
2023-05-09T04:02:14.811Z,2.80
2023-05-09T04:04:41.595Z,3.40
2023-05-09T04:07:11.458Z,3.00
2023-05-09T04:09:38.150Z,3.20
2023-05-09T04:12:05.356Z,3.00
2023-05-09T04:14:32.554Z,3.10
2023-05-09T04:16:59.440Z,2.60
2023-05-09T04:19:26.230Z,3.10
2023-05-09T04:21:53.507Z,3.20
2023-05-09T04:24:20.692Z,2.90
2023-05-09T04:26:48.109Z,3.10
2023-05-09T04:29:17.748Z,2.70
2023-05-09T04:31:49.585Z,3.10
2023-05-09T04:34:16.579Z,3.20
2023-05-09T04:36:43.344Z,3.00
2023-05-09T04:39:10.880Z,3.20
2023-05-09T04:41:38.622Z,2.70
2023-05-09T04:44:05.624Z,3.10
2023-05-09T04:46:32.427Z,2.60
2023-05-09T04:48:59.180Z,2.90
2023-05-09T04:51:26.550Z,2.50
2023-05-09T04:53:53.292Z,3.00
2023-05-09T04:56:21.885Z,2.20
2023-05-09T04:58:49.502Z,2.50
2023-05-09T05:01:16.862Z,2.70
2023-05-09T05:03:44.330Z,2.30
2023-05-09T05:06:11.258Z,2.30
2023-05-09T05:08:39.374Z,2.20
2023-05-09T05:11:06.255Z,2.80
2023-05-09T05:13:34.100Z,2.00
2023-05-09T05:16:01.105Z,2.20
2023-05-09T05:18:28.013Z,2.20
2023-05-09T05:20:54.864Z,1.80
2023-05-09T05:23:22.295Z,2.10
2023-05-09T05:25:51.246Z,2.00
2023-05-09T05:28:19.151Z,2.00
2023-05-09T05:30:46.075Z,1.60
2023-05-09T05:33:12.856Z,2.30
2023-05-09T05:35:39.666Z,2.20
2023-05-09T05:38:06.643Z,2.20
2023-05-09T05:40:33.494Z,2.20
2023-05-09T05:43:02.301Z,2.70
2023-05-09T05:45:31.016Z,2.10
2023-05-09T05:47:58.636Z,2.00
2023-05-09T05:50:25.418Z,2.50
2023-05-09T05:52:52.802Z,2.80
2023-05-09T05:55:19.580Z,2.00
2023-05-09T05:57:47.709Z,2.10
2023-05-09T06:00:17.064Z,2.60
2023-05-09T06:02:46.169Z,1.80
2023-05-09T06:05:18.557Z,2.50
2023-05-09T06:07:45.632Z,1.80
2023-05-09T06:10:12.343Z,1.60
2023-05-09T06:12:39.106Z,1.70
2023-05-09T06:15:07.224Z,1.30
2023-05-09T06:17:35.904Z,1.60
2023-05-09T06:20:02.737Z,1.70
2023-05-09T06:22:30.060Z,2.00
2023-05-09T06:24:56.851Z,2.20
2023-05-09T06:27:23.790Z,2.00
2023-05-09T06:29:52.679Z,2.10
2023-05-09T06:32:19.690Z,2.30
2023-05-09T06:34:46.550Z,2.00
2023-05-09T06:37:13.286Z,2.10
2023-05-09T06:39:40.083Z,1.90
2023-05-09T06:42:06.800Z,2.00
2023-05-09T06:44:37.097Z,2.10
2023-05-09T06:47:03.779Z,2.00
2023-05-09T06:49:30.565Z,2.30
2023-05-09T06:51:57.244Z,2.40
2023-05-09T06:54:24.180Z,2.50
2023-05-09T06:56:51.258Z,2.40
2023-05-09T06:59:17.960Z,2.50
2023-05-09T07:01:44.727Z,2.50
2023-05-09T07:04:11.772Z,2.80
2023-05-09T07:06:38.523Z,2.60
2023-05-09T07:09:05.473Z,2.90
2023-05-09T07:11:36.361Z,3.20
2023-05-09T07:14:03.955Z,2.20
2023-05-09T07:16:30.810Z,2.80
2023-05-09T07:18:57.592Z,3.00
2023-05-09T07:21:24.403Z,2.80
2023-05-09T07:23:51.172Z,2.50
2023-05-09T07:26:17.913Z,2.20
2023-05-09T07:28:44.969Z,3.20
2023-05-09T07:31:12.145Z,2.70
2023-05-09T07:33:39.007Z,2.40
2023-05-09T07:36:06.163Z,3.10
2023-05-09T07:38:33.154Z,2.50
2023-05-09T07:40:59.947Z,2.70
2023-05-09T07:43:27.356Z,2.80
2023-05-09T07:45:54.309Z,2.80
2023-05-09T07:48:21.220Z,2.90
2023-05-09T07:50:47.930Z,2.50
2023-05-09T07:53:14.910Z,3.00
2023-05-09T07:55:42.131Z,2.80
2023-05-09T07:58:08.988Z,2.60
2023-05-09T08:00:36.139Z,2.70
2023-05-09T08:03:03.006Z,2.20
2023-05-09T08:05:29.972Z,2.40
2023-05-09T08:07:56.678Z,2.00
2023-05-09T08:10:23.633Z,2.60
2023-05-09T08:12:51.410Z,2.20
2023-05-09T08:15:18.469Z,2.00
2023-05-09T08:17:45.587Z,2.20
2023-05-09T08:20:13.230Z,2.20
2023-05-09T08:22:40.506Z,2.50
2023-05-09T08:25:08.298Z,2.20
2023-05-09T08:27:35.011Z,2.00
2023-05-09T08:30:12.679Z,2.40
2023-05-09T08:32:42.169Z,2.20
2023-05-09T08:35:09.146Z,2.10
2023-05-09T08:37:36.570Z,2.20
2023-05-09T08:40:07.996Z,2.20
2023-05-09T08:42:40.116Z,2.10
2023-05-09T08:45:16.244Z,2.50
2023-05-09T08:47:43.782Z,2.60
2023-05-09T08:50:11.898Z,2.50
2023-05-09T08:52:38.810Z,2.10
2023-05-09T08:55:05.658Z,2.10
2023-05-09T08:57:35.340Z,2.20
2023-05-09T09:00:04.513Z,2.30
2023-05-09T09:02:31.351Z,2.30
2023-05-09T09:05:03.180Z,2.40
2023-05-09T09:07:31.357Z,2.30
2023-05-09T09:09:58.707Z,2.30
2023-05-09T09:12:26.842Z,2.10
2023-05-09T09:14:55.335Z,2.70
2023-05-09T09:17:25.466Z,2.10
2023-05-09T09:19:52.557Z,2.20
2023-05-09T09:22:20.533Z,2.30
2023-05-09T09:24:47.649Z,2.40
2023-05-09T09:27:14.565Z,2.30
2023-05-09T09:29:41.257Z,2.80
2023-05-09T09:32:08.014Z,2.30
2023-05-09T09:34:35.007Z,2.20
2023-05-09T09:37:02.405Z,2.30
2023-05-09T09:39:29.367Z,2.00
2023-05-09T09:41:56.532Z,2.10
2023-05-09T09:44:24.158Z,2.60
2023-05-09T09:46:53.064Z,2.30
2023-05-09T09:49:21.333Z,2.00
2023-05-09T09:51:52.207Z,2.20
2023-05-09T09:54:19.165Z,2.50
2023-05-09T09:56:50.042Z,2.10
2023-05-09T09:59:18.550Z,2.00
2023-05-09T10:01:58.013Z,2.20
2023-05-09T10:04:25.576Z,2.10
2023-05-09T10:06:56.505Z,2.30
2023-05-09T10:09:24.161Z,2.10
2023-05-09T10:11:55.060Z,2.40
2023-05-09T10:14:23.526Z,2.10
2023-05-09T10:16:57.497Z,1.70
2023-05-09T10:19:26.454Z,1.80
2023-05-09T10:21:55.067Z,1.80
2023-05-09T10:24:28.005Z,2.20
2023-05-09T10:26:59.509Z,2.10
2023-05-09T10:29:26.275Z,2.20
2023-05-09T10:31:54.753Z,2.00
2023-05-09T10:34:21.633Z,1.80
2023-05-09T10:36:48.571Z,1.90
2023-05-09T10:39:15.384Z,1.70
2023-05-09T10:41:42.100Z,1.90
2023-05-09T10:44:08.902Z,2.30
2023-05-09T10:46:36.011Z,1.80
2023-05-09T10:49:02.987Z,1.80
2023-05-09T10:51:29.817Z,2.10
2023-05-09T10:53:56.634Z,2.20
2023-05-09T10:56:30.005Z,2.00
2023-05-09T10:58:57.399Z,1.90
2023-05-09T11:01:39.056Z,1.80
2023-05-09T11:04:13.219Z,1.90
2023-05-09T11:06:52.531Z,1.60
2023-05-09T11:09:35.529Z,1.90
2023-05-09T11:12:05.386Z,1.90
2023-05-09T11:14:39.685Z,1.80
2023-05-09T11:17:07.750Z,1.90
2023-05-09T11:19:37.463Z,1.60
2023-05-09T11:22:21.254Z,1.80
2023-05-09T11:24:53.912Z,1.90
2023-05-09T11:27:28.618Z,2.00
2023-05-09T11:29:56.636Z,1.80
2023-05-09T11:32:32.998Z,1.70
2023-05-09T11:35:16.277Z,1.70
2023-05-09T11:38:02.594Z,1.70
2023-05-09T11:40:30.136Z,2.20
2023-05-09T11:42:58.700Z,1.30
2023-05-09T11:45:30.326Z,1.80
2023-05-09T11:47:57.444Z,1.80
2023-05-09T11:50:24.407Z,1.90
2023-05-09T11:52:51.309Z,1.60
2023-05-09T11:55:20.471Z,1.80
2023-05-09T11:57:52.015Z,1.60
2023-05-09T12:00:20.535Z,1.90
2023-05-09T12:02:47.877Z,1.60
2023-05-09T12:05:16.920Z,1.60
2023-05-09T12:07:44.639Z,1.80
2023-05-09T12:10:13.193Z,1.80
2023-05-09T12:12:44.856Z,2.10
2023-05-09T12:15:13.594Z,2.30
2023-05-09T12:17:41.652Z,1.70
2023-05-09T12:20:09.150Z,1.70
2023-05-09T12:22:37.491Z,1.70
2023-05-09T12:25:09.586Z,1.90
2023-05-09T12:27:37.399Z,1.60
2023-05-09T12:30:12.098Z,1.70
2023-05-09T12:32:40.284Z,1.80
2023-05-09T12:35:08.454Z,2.00
2023-05-09T12:37:35.255Z,1.60
2023-05-09T12:40:15.732Z,1.80
2023-05-09T12:42:46.112Z,1.90
2023-05-09T12:45:13.412Z,1.80
2023-05-09T12:47:41.855Z,1.80
2023-05-09T12:50:10.629Z,1.70
2023-05-09T12:52:54.006Z,1.50
2023-05-09T12:55:25.590Z,1.90
2023-05-09T12:58:02.536Z,1.50
2023-05-09T13:00:29.713Z,1.80
2023-05-09T13:02:57.132Z,1.70
2023-05-09T13:05:24.410Z,1.70
2023-05-09T13:07:55.155Z,2.00
2023-05-09T13:10:28.418Z,1.80
2023-05-09T13:12:55.211Z,2.10
2023-05-09T13:15:22.709Z,2.10
2023-05-09T13:17:51.107Z,1.60
2023-05-09T13:20:18.933Z,2.30
2023-05-09T13:22:46.128Z,1.90
2023-05-09T13:25:13.116Z,1.70
2023-05-09T13:27:39.956Z,1.90
2023-05-09T13:30:10.217Z,1.90
2023-05-09T13:32:37.138Z,1.80
2023-05-09T13:35:06.877Z,1.60
2023-05-09T13:37:34.540Z,1.50
2023-05-09T13:40:01.603Z,1.70
2023-05-09T13:42:28.465Z,1.40
2023-05-09T13:44:55.175Z,1.70
2023-05-09T13:47:21.926Z,1.50
2023-05-09T13:49:48.700Z,1.70
2023-05-09T13:52:16.165Z,1.90
2023-05-09T13:54:43.006Z,1.60
2023-05-09T13:57:09.791Z,1.40
2023-05-09T13:59:36.931Z,1.30
2023-05-09T14:02:03.882Z,1.30
2023-05-09T14:04:34.390Z,1.80
2023-05-09T14:07:01.373Z,1.80
2023-05-09T14:09:28.878Z,1.70
2023-05-09T14:11:56.710Z,1.90
2023-05-09T14:14:24.266Z,1.40
2023-05-09T14:16:51.079Z,1.80
2023-05-09T14:19:17.804Z,1.80
2023-05-09T14:21:44.855Z,1.90
2023-05-09T14:24:15.008Z,1.90
2023-05-09T14:26:42.785Z,1.90
2023-05-09T14:29:09.513Z,2.10
2023-05-09T14:31:36.916Z,1.50
2023-05-09T14:34:05.373Z,1.90
2023-05-09T14:36:35.172Z,1.40
2023-05-09T14:39:02.368Z,1.30
2023-05-09T14:41:29.161Z,1.80
2023-05-09T14:43:55.994Z,1.60
2023-05-09T14:46:24.864Z,1.50
2023-05-09T14:48:52.889Z,1.50
2023-05-09T14:51:19.706Z,1.50
2023-05-09T14:53:47.260Z,1.40
2023-05-09T14:56:14.257Z,1.50
2023-05-09T14:58:41.048Z,1.60
2023-05-09T15:01:07.927Z,1.30
2023-05-09T15:03:34.881Z,1.60
2023-05-09T15:06:02.084Z,2.00
2023-05-09T15:08:28.828Z,1.40
2023-05-09T15:10:56.748Z,1.40
2023-05-09T15:13:23.761Z,1.50
2023-05-09T15:15:50.934Z,1.50
2023-05-09T15:18:18.593Z,1.30
2023-05-09T15:20:45.504Z,1.40
2023-05-09T15:23:12.473Z,1.20
2023-05-09T15:25:41.049Z,1.30
2023-05-09T15:28:07.770Z,1.10
2023-05-09T15:30:38.115Z,1.10
2023-05-09T15:33:05.309Z,1.10
2023-05-09T15:35:32.070Z,1.30
2023-05-09T15:37:59.155Z,1.00
2023-05-09T15:40:25.950Z,1.20
2023-05-09T15:42:52.990Z,1.30
2023-05-09T15:45:19.708Z,1.40
2023-05-09T15:47:46.745Z,1.20
2023-05-09T15:50:13.978Z,1.30
2023-05-09T15:52:40.918Z,1.20
2023-05-09T15:55:08.633Z,1.30
2023-05-09T15:57:35.451Z,1.40
2023-05-09T16:00:02.239Z,1.30
2023-05-09T16:02:39.418Z,1.20
2023-05-09T16:05:06.653Z,1.40
2023-05-09T16:07:35.812Z,1.60
2023-05-09T16:10:03.075Z,1.50
2023-05-09T16:12:32.771Z,1.30
2023-05-09T16:14:59.899Z,1.50
2023-05-09T16:17:26.813Z,1.50
2023-05-09T16:19:54.821Z,1.20
2023-05-09T16:22:21.898Z,1.30
2023-05-09T16:24:49.227Z,2.20
2023-05-09T16:27:16.449Z,1.50
2023-05-09T16:29:43.276Z,1.40
2023-05-09T16:32:10.285Z,1.40
2023-05-09T16:34:37.265Z,1.20
2023-05-09T16:37:04.166Z,1.00
2023-05-09T16:39:31.082Z,1.40
2023-05-09T16:41:58.263Z,1.10
2023-05-09T16:44:25.458Z,1.90
2023-05-09T16:46:52.542Z,1.30
2023-05-09T16:49:19.276Z,1.30
2023-05-09T16:51:45.979Z,1.20
2023-05-09T16:54:13.025Z,1.20
2023-05-09T16:56:39.870Z,2.90
2023-05-09T16:59:06.581Z,1.70
2023-05-09T17:01:33.474Z,1.60
2023-05-09T17:04:01.653Z,1.90
2023-05-09T17:06:28.665Z,1.90
2023-05-09T17:08:55.483Z,2.00
2023-05-09T17:11:22.760Z,1.90
2023-05-09T17:13:49.661Z,1.20
2023-05-09T17:16:16.568Z,1.30
2023-05-09T17:18:46.122Z,1.50
2023-05-09T17:21:16.700Z,1.70
2023-05-09T17:23:43.546Z,2.30
2023-05-09T17:26:10.518Z,1.90
2023-05-09T17:28:37.231Z,2.10
2023-05-09T17:31:04.537Z,2.60
2023-05-09T17:33:31.458Z,2.60
2023-05-09T17:36:00.131Z,2.40
2023-05-09T17:38:34.716Z,2.80
2023-05-09T17:41:01.920Z,2.10
2023-05-09T17:43:28.726Z,2.20
2023-05-09T17:45:55.954Z,2.30
2023-05-09T17:48:23.097Z,2.10
2023-05-09T17:50:50.368Z,2.60
2023-05-09T17:53:17.840Z,1.80
2023-05-09T17:55:44.611Z,1.80
2023-05-09T17:58:11.510Z,1.90
2023-05-09T18:00:38.225Z,1.80
2023-05-09T18:03:05.346Z,2.20
2023-05-09T18:05:32.204Z,2.00
2023-05-09T18:08:00.874Z,2.10
2023-05-09T18:10:28.527Z,2.60
2023-05-09T18:12:55.396Z,2.40
2023-05-09T18:15:22.214Z,2.30
2023-05-09T18:17:49.457Z,3.00
2023-05-09T18:20:16.452Z,2.80
2023-05-09T18:22:43.530Z,2.70
2023-05-09T18:25:10.458Z,3.30
2023-05-09T18:27:37.277Z,3.10
2023-05-09T18:30:04.941Z,3.60
2023-05-09T18:32:34.806Z,3.50
2023-05-09T18:35:01.584Z,3.20
2023-05-09T18:37:28.326Z,3.60
2023-05-09T18:39:55.116Z,6.20
2023-05-09T18:42:22.232Z,3.40
2023-05-09T18:44:49.291Z,2.90
2023-05-09T18:47:16.090Z,2.70
2023-05-09T18:49:42.962Z,2.30
2023-05-09T18:52:10.311Z,2.80
2023-05-09T18:54:38.248Z,2.60
2023-05-09T18:57:05.062Z,2.10
2023-05-09T18:59:32.340Z,1.80
2023-05-09T19:01:59.556Z,2.00
2023-05-09T19:04:26.872Z,2.00
2023-05-09T19:06:53.833Z,3.60
2023-05-09T19:09:20.672Z,3.10
2023-05-09T19:11:47.431Z,4.20
2023-05-09T19:14:14.230Z,5.30
2023-05-09T19:16:41.146Z,5.00
2023-05-09T19:19:09.006Z,4.50
2023-05-09T19:21:36.205Z,6.30
2023-05-09T19:24:04.679Z,6.00
2023-05-09T19:26:31.452Z,5.20
2023-05-09T19:28:58.366Z,5.00
2023-05-09T19:31:25.734Z,4.70
2023-05-09T19:33:54.849Z,4.10
2023-05-09T19:36:21.887Z,5.00
2023-05-09T19:38:48.649Z,4.30
2023-05-09T19:41:15.450Z,3.90
2023-05-09T19:43:42.768Z,3.60
2023-05-09T19:46:09.807Z,4.00
2023-05-09T19:48:37.889Z,4.10
2023-05-09T19:51:04.695Z,4.00
2023-05-09T19:53:31.644Z,3.50
2023-05-09T19:55:58.779Z,3.90
2023-05-09T19:58:25.646Z,4.40
2023-05-09T20:00:52.419Z,4.70
2023-05-09T20:03:19.174Z,4.60
2023-05-09T20:05:45.921Z,4.80
2023-05-09T20:08:15.616Z,4.40
2023-05-09T20:10:44.512Z,4.50
2023-05-09T20:13:11.327Z,4.00
2023-05-09T20:15:38.113Z,4.30
2023-05-09T20:18:07.113Z,4.60
2023-05-09T20:20:34.110Z,4.70
2023-05-09T20:23:00.839Z,4.80
2023-05-09T20:25:27.669Z,4.70
2023-05-09T20:27:54.807Z,4.90
2023-05-09T20:30:21.685Z,4.30
2023-05-09T20:32:48.452Z,4.70
2023-05-09T20:35:15.382Z,4.50
2023-05-09T20:37:42.262Z,4.70
2023-05-09T20:40:09.514Z,4.60
2023-05-09T20:42:36.418Z,5.50
2023-05-09T20:45:03.755Z,4.80
2023-05-09T20:47:30.528Z,4.70
2023-05-09T20:49:58.329Z,4.60
2023-05-09T20:52:25.506Z,4.30
2023-05-09T20:54:52.291Z,3.60
2023-05-09T20:57:19.194Z,3.60
2023-05-09T20:59:45.887Z,3.40
2023-05-09T21:02:13.678Z,4.10
2023-05-09T21:04:43.036Z,3.90
2023-05-09T21:07:10.113Z,3.00
2023-05-09T21:09:36.899Z,3.50
2023-05-09T21:12:04.521Z,3.00
2023-05-09T21:14:31.342Z,2.90
2023-05-09T21:16:58.461Z,3.10
2023-05-09T21:19:25.647Z,3.20
2023-05-09T21:21:52.417Z,2.70
2023-05-09T21:24:19.185Z,2.70
2023-05-09T21:26:45.993Z,3.10
2023-05-09T21:29:12.904Z,2.70
2023-05-09T21:31:39.745Z,2.70
2023-05-09T21:34:09.996Z,2.80
2023-05-09T21:36:38.446Z,2.30
2023-05-09T21:39:09.135Z,2.00
2023-05-09T21:41:37.035Z,2.10
2023-05-09T21:44:04.020Z,1.50
2023-05-09T21:46:34.747Z,1.80
2023-05-09T21:49:01.876Z,1.90
2023-05-09T21:51:28.787Z,1.60
2023-05-09T21:53:55.702Z,1.70
2023-05-09T21:56:22.736Z,1.60
2023-05-09T21:58:49.523Z,1.90
2023-05-09T22:01:16.678Z,2.00
2023-05-09T22:03:43.569Z,2.00
2023-05-09T22:06:11.557Z,2.10
2023-05-09T22:08:38.382Z,2.10
2023-05-09T22:11:05.096Z,2.20
2023-05-09T22:13:31.775Z,2.10
2023-05-09T22:15:58.541Z,2.70
2023-05-09T22:18:25.252Z,2.40
2023-05-09T22:20:51.970Z,2.60
2023-05-09T22:23:18.694Z,2.40
2023-05-09T22:25:45.455Z,2.40
2023-05-09T22:28:12.178Z,2.40
2023-05-09T22:30:38.900Z,2.60
2023-05-09T22:33:05.823Z,2.60
2023-05-09T22:35:32.621Z,2.60
2023-05-09T22:37:59.307Z,2.70
2023-05-09T22:40:26.792Z,2.80
2023-05-09T22:42:53.551Z,2.70
2023-05-09T22:45:20.802Z,2.50
2023-05-09T22:47:47.509Z,2.90
2023-05-09T22:50:14.630Z,2.50
2023-05-09T22:52:41.632Z,2.70
2023-05-09T22:55:08.751Z,3.20
2023-05-09T22:57:35.993Z,3.30
2023-05-09T23:00:03.205Z,4.10
2023-05-09T23:02:29.943Z,2.80
2023-05-09T23:04:56.753Z,4.00
2023-05-09T23:07:23.440Z,3.60
2023-05-09T23:09:50.738Z,3.70
2023-05-09T23:12:17.676Z,3.70
2023-05-09T23:14:44.398Z,4.00
2023-05-09T23:17:11.161Z,3.00
2023-05-09T23:19:38.138Z,3.10
2023-05-09T23:22:04.944Z,2.80
2023-05-09T23:24:31.659Z,2.80
2023-05-09T23:26:58.433Z,2.70
2023-05-09T23:29:25.252Z,2.10
2023-05-09T23:31:52.250Z,2.70
2023-05-09T23:34:19.320Z,3.30
2023-05-09T23:36:46.290Z,3.20
2023-05-09T23:39:13.284Z,2.70
2023-05-09T23:41:40.101Z,2.40
2023-05-09T23:44:07.675Z,2.90
2023-05-09T23:46:34.606Z,2.50
2023-05-09T23:49:01.509Z,2.40
2023-05-09T23:51:28.393Z,3.10
2023-05-09T23:53:55.050Z,3.20
2023-05-09T23:56:22.445Z,3.00
2023-05-09T23:58:49.196Z,3.40
